JUJ weather

Gobernador Horacio Guzman International Airport
San Salvador de Jujuy, Jujuy Province, Argentina

Public forecast

Using degrees Celsius for public forecast. Weather courtesy of forecast.io.

METAR (pilot weather report)

Retrieved 2019/05/25 20:00 UTC (22 minutes ago):

SASJ 252000Z 07006KT 010V090 CAVOK 19/09 Q1009

TAF (pilot weather forecast)

Retrieved 2019/05/25 18:00 UTC (2 hours ago):

TAF SASJ 251700Z 2518/2618 VRB03KT CAVOK TX25/2618Z TN07/2610Z BECMG 2608/2610 5000 BR NSC BECMG 2612/2618 02005KT CAVOK